Time;durP1;ratioP1;P1;durP2;ratioP2;P2;SDS_P1;SDS_P2;PMS_P1;PMS_P2;Temp;Humidity;BMP_temperature;BMP_pressure;BME280_temperature;BME280_humidity;BME280_pressure;Samples;Min_cycle;Max_cycle;Signal;HPM_P1;HPM_P2
2023/06/07 00:01:33;;;;;;;6.63;4.80;;;;;;;;;;5001270;28;20440;-84
2023/06/07 00:04:04;;;;;;;7.63;5.90;;;19.70;99.90;;;;;;4999416;28;20433;-84
2023/06/07 00:06:32;;;;;;;6.60;5.90;;;19.50;1.00;;;;;;4999815;28;20850;-84
2023/06/07 00:08:59;;;;;;;7.43;6.13;;;19.60;1.00;;;;;;4999121;28;20552;-85
2023/06/07 00:11:26;;;;;;;9.77;7.10;;;19.70;99.90;;;;;;5012769;28;20527;-85
2023/06/07 00:13:53;;;;;;;9.10;6.03;;;19.70;99.90;;;;;;5014845;28;20464;-85
2023/06/07 00:16:20;;;;;;;6.63;5.83;;;19.70;99.90;;;;;;5002710;28;20527;-85
2023/06/07 00:18:47;;;;;;;9.50;6.27;;;19.90;1.00;;;;;;4998428;28;20449;-84
2023/06/07 00:21:15;;;;;;;5.63;5.23;;;19.70;99.90;;;;;;4998790;28;20487;-85
2023/06/07 00:23:42;;;;;;;7.10;6.43;;;19.80;99.90;;;;;;4998686;28;20542;-84
2023/06/07 00:26:09;;;;;;;11.63;10.53;;;19.70;99.90;;;;;;4998874;28;20543;-84
2023/06/07 00:28:35;;;;;;;14.13;11.40;;;19.60;99.90;;;;;;4999259;28;20452;-85
2023/06/07 00:31:02;;;;;;;12.83;11.70;;;20.10;1.00;;;;;;5015604;28;20468;-84
2023/06/07 00:33:29;;;;;;;12.40;11.27;;;19.60;99.90;;;;;;5019840;28;20564;-84
2023/06/07 00:35:56;;;;;;;12.17;10.83;;;19.60;99.90;;;;;;5020898;28;20451;-84
2023/06/07 00:38:25;;;;;;;11.97;10.77;;;19.60;99.90;;;;;;5021121;28;20570;-87
2023/06/07 00:40:52;;;;;;;9.37;8.23;;;19.60;99.90;;;;;;5007080;28;20468;-86
2023/06/07 00:43:19;;;;;;;8.53;7.50;;;;;;;;;;5001401;28;20921;-86
2023/06/07 00:45:46;;;;;;;7.20;6.50;;;20.10;1.00;;;;;;5000305;28;20457;-86
2023/06/07 00:48:13;;;;;;;7.00;6.40;;;19.80;99.90;;;;;;4999210;28;20445;-86
2023/06/07 00:50:41;;;;;;;12.90;11.10;;;19.50;99.90;;;;;;5000993;28;20508;-86
2023/06/07 00:53:09;;;;;;;12.00;9.13;;;19.50;99.90;;;;;;5021130;28;20496;-86
2023/06/07 00:55:37;;;;;;;10.57;8.83;;;19.50;99.90;;;;;;5003750;28;20445;-86
2023/06/07 00:58:07;;;;;;;19.10;13.77;;;19.90;1.00;;;;;;5014636;28;20940;-88
2023/06/07 01:00:37;;;;;;;27.50;16.90;;;18.90;1.00;;;;;;5007676;28;20476;-86
2023/06/07 01:03:05;;;;;;;48.97;27.40;;;;;;;;;;5008449;28;20464;-85
2023/06/07 01:05:32;;;;;;;37.20;23.30;;;19.40;99.90;;;;;;4999149;28;20508;-86
2023/06/07 01:08:00;;;;;;;67.03;34.83;;;19.20;1.00;;;;;;4998184;28;20449;-86
2023/06/07 01:10:27;;;;;;;61.20;31.77;;;19.30;99.90;;;;;;4997997;28;20889;-86
2023/06/07 01:12:56;;;;;;;53.67;26.80;;;19.40;99.90;;;;;;4997442;28;20488;-86
2023/06/07 01:15:24;;;;;;;47.87;21.90;;;19.30;99.90;;;;;;4997055;28;20459;-86
2023/06/07 01:17:53;;;;;;;25.13;13.17;;;19.30;99.90;;;;;;4998068;28;20452;-86
2023/06/07 01:20:23;;;;;;;21.30;11.17;;;19.30;99.90;;;;;;4997471;28;20482;-86
2023/06/07 01:22:52;;;;;;;8.03;6.10;;;19.40;99.90;;;;;;4997622;28;20480;-86
2023/06/07 01:25:20;;;;;;;12.53;6.97;;;19.30;99.90;;;;;;4998777;28;20448;-86
2023/06/07 01:27:50;;;;;;;9.60;6.37;;;19.30;99.90;;;;;;4997706;28;20507;-86
2023/06/07 01:30:17;;;;;;;7.33;4.97;;;;;;;;;;4997458;28;21019;-86
2023/06/07 01:32:44;;;;;;;6.13;4.20;;;19.00;1.00;;;;;;4997476;28;20833;-86
2023/06/07 01:35:13;;;;;;;8.30;5.10;;;19.30;99.90;;;;;;4996798;28;20544;-86
2023/06/07 01:37:41;;;;;;;4.40;4.00;;;19.60;1.00;;;;;;5006707;28;20517;-86
2023/06/07 01:40:09;;;;;;;4.10;3.70;;;19.10;99.90;;;;;;5016534;28;20475;-86
2023/06/07 01:42:39;;;;;;;5.93;3.87;;;19.20;99.90;;;;;;5001907;28;20488;-86
2023/06/07 01:45:07;;;;;;;5.10;3.70;;;19.20;99.90;;;;;;4998580;28;20955;-85
2023/06/07 01:47:34;;;;;;;5.03;4.47;;;19.20;99.90;;;;;;4996929;28;20455;-86
2023/06/07 01:50:01;;;;;;;5.57;4.17;;;19.30;99.90;;;;;;4996696;28;20519;-86
2023/06/07 01:52:28;;;;;;;6.73;3.60;;;19.00;1.00;;;;;;4996282;28;20492;-86
2023/06/07 01:54:55;;;;;;;7.03;4.40;;;19.30;99.90;;;;;;4996889;28;20456;-86
2023/06/07 01:57:29;;;;;;;7.20;4.47;;;19.20;99.90;;;;;;4996906;28;20515;-86
2023/06/07 02:00:10;;;;;;;4.47;4.07;;;19.10;99.90;;;;;;5004309;28;20492;-86
2023/06/07 02:02:46;;;;;;;6.50;4.27;;;19.10;99.90;;;;;;5003470;28;20430;-85
2023/06/07 02:05:16;;;;;;;6.73;4.40;;;19.10;99.90;;;;;;5001705;28;20483;-86
2023/06/07 02:07:48;;;;;;;4.73;4.20;;;19.00;99.90;;;;;;5002551;28;20429;-85
2023/06/07 02:10:20;;;;;;;6.77;3.67;;;19.00;99.90;;;;;;5003493;28;20563;-86
2023/06/07 02:12:47;;;;;;;5.27;4.13;;;19.30;1.00;;;;;;5016038;28;20499;-86
2023/06/07 02:15:16;;;;;;;9.33;4.30;;;19.00;99.90;;;;;;5005666;28;20447;-86
2023/06/07 02:17:49;;;;;;;7.20;4.30;;;18.90;1.00;;;;;;5000533;28;20497;-86
2023/06/07 02:20:17;;;;;;;7.17;4.30;;;19.00;99.90;;;;;;5008332;28;20465;-86
2023/06/07 02:22:44;;;;;;;6.10;3.90;;;19.10;1.00;;;;;;5008700;28;20527;-86
2023/06/07 02:25:11;;;;;;;4.50;4.03;;;18.60;1.00;;;;;;5015324;28;20445;-86
2023/06/07 02:27:38;;;;;;;5.67;4.60;;;18.90;99.90;;;;;;5011586;28;20453;-86
2023/06/07 02:30:09;;;;;;;7.27;4.80;;;18.90;99.90;;;;;;5001025;28;20572;-86
2023/06/07 02:32:38;;;;;;;4.67;4.27;;;18.90;99.90;;;;;;5000090;28;20456;-86
2023/06/07 02:35:06;;;;;;;4.50;4.07;;;18.90;99.90;;;;;;4998477;28;20539;-86
2023/06/07 02:37:33;;;;;;;7.00;5.37;;;18.90;99.90;;;;;;4998733;28;20451;-86
2023/06/07 02:40:00;;;;;;;5.00;4.47;;;18.60;1.00;;;;;;4998966;28;20472;-86
2023/06/07 02:42:26;;;;;;;7.53;3.80;;;19.10;1.00;;;;;;5000976;28;20508;-86
2023/06/07 02:44:53;;;;;;;4.60;4.20;;;18.90;99.90;;;;;;5003170;28;20455;-86
2023/06/07 02:47:20;;;;;;;6.27;4.27;;;19.20;99.90;;;;;;4999463;28;20456;-86
2023/06/07 02:49:51;;;;;;;5.83;4.47;;;18.90;99.90;;;;;;4996966;28;20464;-86
2023/06/07 02:52:18;;;;;;;5.43;4.93;;;18.90;99.90;;;;;;5004636;28;20426;-86
2023/06/07 02:54:45;;;;;;;5.73;4.80;;;18.90;99.90;;;;;;5002854;28;20583;-86
2023/06/07 02:57:12;;;;;;;5.60;4.00;;;18.90;99.90;;;;;;4995948;28;20453;-86
2023/06/07 02:59:39;;;;;;;4.60;4.20;;;18.90;99.90;;;;;;4997120;28;20477;-87
2023/06/07 03:02:06;;;;;;;4.60;4.17;;;18.80;99.90;;;;;;4995810;28;20452;-87
2023/06/07 03:04:33;;;;;;;6.40;3.70;;;18.80;99.90;;;;;;4994339;28;20541;-86
2023/06/07 03:07:02;;;;;;;4.60;3.77;;;18.80;99.90;;;;;;4995992;28;20483;-86
2023/06/07 03:09:28;;;;;;;4.17;3.77;;;18.40;1.00;;;;;;4995491;28;20478;-87
2023/06/07 03:11:55;;;;;;;5.57;3.40;;;18.80;99.90;;;;;;4995344;28;20804;-87
2023/06/07 03:14:23;;;;;;;5.30;3.77;;;18.80;99.90;;;;;;4995255;28;20491;-87
2023/06/07 03:16:52;;;;;;;5.73;3.57;;;;;;;;;;4995029;28;20963;-87
2023/06/07 03:19:22;;;;;;;4.50;3.50;;;18.70;99.90;;;;;;4995725;28;20477;-87
2023/06/07 03:21:50;;;;;;;3.93;3.60;;;18.80;99.90;;;;;;4996039;28;20444;-87
2023/06/07 03:24:18;;;;;;;5.53;4.00;;;18.70;99.90;;;;;;4995585;28;20503;-87
2023/06/07 03:26:45;;;;;;;4.80;4.40;;;18.80;99.90;;;;;;4995652;28;20455;-87
2023/06/07 03:29:12;;;;;;;5.87;3.63;;;18.40;1.00;;;;;;4996103;28;20481;-87
2023/06/07 03:31:39;;;;;;;4.10;3.50;;;18.40;1.00;;;;;;5002184;28;20447;-88
2023/06/07 03:34:05;;;;;;;3.63;3.33;;;18.70;99.90;;;;;;5018851;28;20485;-88
2023/06/07 03:36:32;;;;;;;4.00;3.70;;;18.50;1.00;;;;;;5018931;28;20433;-87
2023/06/07 03:39:00;;;;;;;4.70;3.90;;;18.40;1.00;;;;;;5006415;28;20437;-86
2023/06/07 03:41:28;;;;;;;5.60;3.97;;;18.80;99.90;;;;;;4997056;28;20448;-87
2023/06/07 03:43:55;;;;;;;4.20;3.80;;;;;;;;;;4996449;28;20445;-87
2023/06/07 03:46:22;;;;;;;3.90;3.60;;;;;;;;;;4996287;28;20480;-88
2023/06/07 03:48:49;;;;;;;3.70;3.37;;;19.10;1.00;;;;;;4996057;28;20448;-87
2023/06/07 03:51:16;;;;;;;5.97;4.03;;;18.80;99.90;;;;;;4994945;28;20543;-85
2023/06/07 03:53:43;;;;;;;4.20;3.40;;;18.80;99.90;;;;;;5018198;28;20535;-87
2023/06/07 03:56:10;;;;;;;4.10;3.80;;;18.80;99.90;;;;;;5018625;28;20496;-88
2023/06/07 03:58:41;;;;;;;4.23;3.60;;;18.90;99.90;;;;;;4998054;28;20508;-85
2023/06/07 04:01:07;;;;;;;4.43;4.03;;;18.80;99.90;;;;;;4996309;28;20452;-85
2023/06/07 04:03:34;;;;;;;3.80;3.50;;;18.90;99.90;;;;;;4995967;28;20441;-85
2023/06/07 04:06:01;;;;;;;4.47;4.07;;;19.00;99.90;;;;;;4996381;28;20453;-85
2023/06/07 04:08:28;;;;;;;5.83;4.40;;;18.90;99.90;;;;;;4995960;28;20459;-84
2023/06/07 04:10:56;;;;;;;4.60;3.80;;;19.00;99.90;;;;;;4996337;28;21183;-85
2023/06/07 04:13:23;;;;;;;4.50;3.87;;;19.40;1.00;;;;;;5011210;28;20464;-85
2023/06/07 04:15:51;;;;;;;4.47;4.00;;;18.90;99.90;;;;;;5007010;28;20505;-85
2023/06/07 04:18:18;;;;;;;4.63;4.10;;;;;;;;;;5000255;28;20453;-85
2023/06/07 04:20:48;;;;;;;4.37;4.00;;;19.10;99.90;;;;;;5001342;28;20481;-85
2023/06/07 04:23:15;;;;;;;4.30;3.90;;;19.10;99.90;;;;;;5004614;28;20531;-85
2023/06/07 04:25:42;;;;;;;11.70;7.10;;;19.00;99.90;;;;;;5006835;28;20440;-85
2023/06/07 04:28:10;;;;;;;7.67;4.23;;;19.10;99.90;;;;;;5002580;28;20519;-85
2023/06/07 04:30:40;;;;;;;5.77;4.20;;;19.00;99.90;;;;;;5014179;23;20492;-87
2023/06/07 04:33:13;;;;;;;4.87;4.37;;;19.00;99.90;;;;;;5002033;28;20440;-86
2023/06/07 04:35:41;;;;;;;4.80;3.70;;;19.30;99.90;;;;;;5001521;28;20432;-86
2023/06/07 04:38:09;;;;;;;8.60;4.93;;;;;;;;;;5002041;28;20453;-86
2023/06/07 04:40:40;;;;;;;5.10;4.20;;;19.30;99.90;;;;;;5002114;28;20478;-86
2023/06/07 04:43:08;;;;;;;4.27;3.87;;;19.70;1.00;;;;;;5010970;28;20445;-87
2023/06/07 04:45:36;;;;;;;10.70;5.30;;;19.40;99.90;;;;;;5011783;28;20441;-87
2023/06/07 04:48:04;;;;;;;4.30;3.90;;;19.50;99.90;;;;;;5002824;28;20936;-87
2023/06/07 04:50:33;;;;;;;7.27;4.97;;;19.10;1.00;;;;;;5001935;28;20884;-87
2023/06/07 04:53:02;;;;;;;11.73;4.17;;;;;;;;;;5001773;28;20867;-87
2023/06/07 04:55:30;;;;;;;5.23;3.67;;;19.40;99.90;;;;;;5003400;28;20448;-87
2023/06/07 04:57:58;;;;;;;4.43;4.00;;;19.30;1.00;;;;;;5002097;28;20456;-87
2023/06/07 05:00:26;;;;;;;4.20;3.80;;;19.50;99.90;;;;;;5003531;28;20465;-87
2023/06/07 05:02:53;;;;;;;5.30;3.83;;;19.80;1.00;;;;;;5004345;28;20940;-87
2023/06/07 05:05:20;;;;;;;5.03;3.80;;;19.50;1.00;;;;;;5012550;28;20472;-87
2023/06/07 05:07:49;;;;;;;9.07;4.50;;;19.30;99.90;;;;;;5001333;28;20819;-87
2023/06/07 05:10:17;;;;;;;4.83;4.40;;;19.20;99.90;;;;;;4999031;28;20485;-87
2023/06/07 05:12:44;;;;;;;11.63;4.10;;;;;;;;;;5000216;28;20451;-87
2023/06/07 05:15:11;;;;;;;6.70;4.17;;;18.90;1.00;;;;;;5001443;28;20485;-87
2023/06/07 05:17:39;;;;;;;9.10;5.23;;;19.60;1.00;;;;;;5007072;28;20488;-88
2023/06/07 05:20:10;;;;;;;6.27;3.80;;;19.60;1.00;;;;;;5003036;28;20473;-87
2023/06/07 05:22:37;;;;;;;5.37;4.37;;;;;;;;;;5001458;28;20871;-86
2023/06/07 05:25:08;;;;;;;5.63;4.20;;;19.60;99.90;;;;;;5000601;28;20441;-87
2023/06/07 05:27:36;;;;;;;4.33;3.47;;;19.30;99.90;;;;;;4998885;28;20437;-86
2023/06/07 05:30:04;;;;;;;4.90;4.40;;;;;;;;;;4999542;28;20475;-88
2023/06/07 05:32:31;;;;;;;3.83;3.50;;;18.90;1.00;;;;;;5000263;28;20464;-87
2023/06/07 05:34:59;;;;;;;5.63;4.27;;;;;;;;;;5014356;28;20480;-87
2023/06/07 05:37:27;;;;;;;4.00;3.57;;;;;;;;;;5017906;28;20473;-86
2023/06/07 05:39:54;;;;;;;10.17;3.83;;;19.30;99.90;;;;;;5018103;28;20447;-87
2023/06/07 05:42:22;;;;;;;4.03;3.73;;;19.30;99.90;;;;;;5017563;28;20441;-87
2023/06/07 05:44:50;;;;;;;5.50;4.03;;;19.30;99.90;;;;;;5010901;28;20456;-87
2023/06/07 05:47:20;;;;;;;5.90;4.20;;;19.30;99.90;;;;;;5001869;28;20476;-87
2023/06/07 05:49:48;;;;;;;4.60;4.03;;;19.30;99.90;;;;;;5001127;28;20468;-87
2023/06/07 05:52:15;;;;;;;7.00;4.20;;;;;;;;;;5000796;28;20441;-87
2023/06/07 05:54:50;;;;;;;4.97;4.10;;;19.30;99.90;;;;;;5000170;28;20833;-87
2023/06/07 05:57:17;;;;;;;7.23;4.33;;;;;;;;;;4999997;28;20436;-87
2023/06/07 05:59:45;;;;;;;5.00;3.23;;;19.30;99.90;;;;;;5001743;28;20469;-88
2023/06/07 06:02:12;;;;;;;7.33;4.40;;;19.30;99.90;;;;;;5001526;28;20463;-88
2023/06/07 06:04:41;;;;;;;9.03;3.50;;;19.40;99.90;;;;;;5001341;28;20954;-87
2023/06/07 06:07:09;;;;;;;11.40;4.07;;;;;;;;;;5001663;28;20449;-87
2023/06/07 06:09:36;;;;;;;6.27;3.70;;;;;;;;;;5003531;28;20472;-87
2023/06/07 06:12:03;;;;;;;9.07;4.10;;;;;;;;;;5004338;28;20982;-87
2023/06/07 06:14:30;;;;;;;7.27;5.00;;;;;;;;;;5000775;28;20851;-87
2023/06/07 06:16:59;;;;;;;4.93;4.20;;;19.60;99.90;;;;;;4999623;28;20495;-87
2023/06/07 06:19:26;;;;;;;5.17;4.03;;;;;;;;;;5002983;28;20464;-87
2023/06/07 06:21:53;;;;;;;8.00;3.80;;;;;;;;;;5015513;28;20448;-87
2023/06/07 06:24:20;;;;;;;4.93;3.70;;;19.50;1.00;;;;;;5011977;28;20485;-87
2023/06/07 06:26:47;;;;;;;5.70;4.33;;;;;;;;;;5018753;28;20472;-87
2023/06/07 06:29:14;;;;;;;4.20;3.60;;;;;;;;;;5016879;28;20445;-87
2023/06/07 06:31:43;;;;;;;9.50;4.10;;;20.00;99.90;;;;;;5013110;28;20484;-87
2023/06/07 06:34:12;;;;;;;8.53;4.50;;;19.80;1.00;;;;;;5010194;28;20552;-87
2023/06/07 06:36:39;;;;;;;4.63;3.40;;;20.00;99.90;;;;;;5007155;28;20444;-87
2023/06/07 06:39:08;;;;;;;6.27;3.70;;;;;;;;;;5014717;28;20511;-86
2023/06/07 06:41:35;;;;;;;7.30;4.80;;;;;;;;;;5019575;28;20425;-86
2023/06/07 06:44:02;;;;;;;9.07;4.10;;;20.70;1.00;;;;;;5019534;28;20429;-86
2023/06/07 06:46:29;;;;;;;15.00;4.87;;;19.90;1.00;;;;;;5015686;28;20476;-87
2023/06/07 06:48:56;;;;;;;5.33;4.20;;;20.50;1.00;;;;;;5006173;28;20457;-88
2023/06/07 06:51:24;;;;;;;18.40;7.00;;;20.50;99.90;;;;;;4999635;28;20810;-87
2023/06/07 06:53:51;;;;;;;5.07;4.03;;;20.60;99.90;;;;;;4999712;28;20448;-87
2023/06/07 06:56:18;;;;;;;5.30;3.73;;;20.80;1.00;;;;;;5004115;28;20494;-87
2023/06/07 06:58:46;;;;;;;5.83;3.70;;;21.00;1.00;;;;;;4998721;28;20544;-87
2023/06/07 07:01:15;;;;;;;7.40;6.60;;;20.70;99.90;;;;;;4999559;28;20543;-87
2023/06/07 07:03:43;;;;;;;6.40;3.93;;;20.80;99.90;;;;;;4999306;28;20486;-87
2023/06/07 07:06:10;;;;;;;15.03;10.53;;;21.30;1.00;;;;;;5000381;28;20548;-87
2023/06/07 07:08:39;;;;;;;6.67;6.00;;;20.80;99.90;;;;;;5001219;28;20521;-87
2023/06/07 07:11:06;;;;;;;8.53;4.20;;;;;;;;;;5008355;28;20748;-87
2023/06/07 07:13:33;;;;;;;4.10;3.70;;;;;;;;;;5011869;28;20445;-87
2023/06/07 07:16:00;;;;;;;9.43;4.00;;;;;;;;;;5009792;28;20481;-87
2023/06/07 07:18:27;;;;;;;6.80;3.80;;;;;;;;;;5015175;28;20564;-87
2023/06/07 07:20:54;;;;;;;5.17;3.60;;;21.10;99.90;;;;;;5015403;28;20493;-86
2023/06/07 07:23:21;;;;;;;4.10;3.80;;;;;;;;;;5007014;28;20449;-86
2023/06/07 07:25:50;;;;;;;4.10;3.63;;;21.10;99.90;;;;;;5005325;28;20639;-86
2023/06/07 07:28:17;;;;;;;5.67;3.50;;;;;;;;;;5007249;28;20548;-87
2023/06/07 07:30:44;;;;;;;7.10;4.10;;;21.20;99.90;;;;;;5002628;28;20512;-86
2023/06/07 07:33:12;;;;;;;3.97;3.50;;;;;;;;;;5003428;28;20448;-87
2023/06/07 07:35:38;;;;;;;6.10;3.80;;;21.40;99.90;;;;;;5002626;28;20487;-87
2023/06/07 07:38:06;;;;;;;6.73;4.03;;;;;;;;;;5008093;28;20482;-85
2023/06/07 07:40:33;;;;;;;6.97;4.43;;;21.50;1.00;;;;;;5012277;28;20473;-85
2023/06/07 07:43:01;;;;;;;11.17;4.60;;;21.40;99.90;;;;;;5010576;28;20485;-86
2023/06/07 07:45:31;;;;;;;6.50;3.67;;;21.60;99.90;;;;;;5006657;28;20523;-87
2023/06/07 07:47:58;;;;;;;6.63;3.97;;;;;;;;;;5007079;28;20450;-86
2023/06/07 07:50:26;;;;;;;5.77;5.23;;;21.60;99.90;;;;;;5007403;28;20544;-86
2023/06/07 07:52:54;;;;;;;5.07;4.00;;;21.60;99.90;;;;;;5012138;28;20465;-87
2023/06/07 07:55:23;;;;;;;4.57;3.40;;;21.60;99.90;;;;;;5010213;28;20487;-87
2023/06/07 07:57:50;;;;;;;9.80;3.90;;;21.60;99.90;;;;;;5008710;28;20479;-86
2023/06/07 08:00:20;;;;;;;5.30;3.67;;;21.40;1.00;;;;;;5008113;28;20466;-85
2023/06/07 08:02:48;;;;;;;7.20;3.43;;;21.70;99.90;;;;;;5008375;28;20472;-86
2023/06/07 08:05:15;;;;;;;3.67;3.37;;;22.10;1.00;;;;;;5009274;28;20448;-86
2023/06/07 08:07:42;;;;;;;3.70;3.40;;;21.80;99.90;;;;;;5007194;28;20453;-86
2023/06/07 08:10:11;;;;;;;5.17;4.43;;;21.90;99.90;;;;;;5007034;28;20910;-86
2023/06/07 08:12:37;;;;;;;6.87;3.97;;;21.90;99.90;;;;;;5007506;28;20451;-87
2023/06/07 08:15:05;;;;;;;4.30;3.80;;;22.00;99.90;;;;;;5007768;28;20512;-86
2023/06/07 08:17:34;;;;;;;4.77;3.97;;;22.00;99.90;;;;;;5008320;28;20444;-87
2023/06/07 08:20:01;;;;;;;12.63;4.20;;;22.10;99.90;;;;;;5009214;28;20472;-87
2023/06/07 08:22:28;;;;;;;4.40;4.00;;;22.40;1.00;;;;;;5007017;28;20535;-86
2023/06/07 08:24:55;;;;;;;4.80;3.80;;;22.20;99.90;;;;;;5006834;28;21007;-87
2023/06/07 08:27:22;;;;;;;3.87;3.57;;;23.00;1.00;;;;;;5006571;28;20455;-86
2023/06/07 08:29:48;;;;;;;4.10;3.70;;;22.60;99.90;;;;;;5007043;28;20527;-86
2023/06/07 08:32:15;;;;;;;13.43;4.30;;;22.60;99.90;;;;;;5006347;28;20544;-87
2023/06/07 08:34:43;;;;;;;11.00;3.83;;;22.70;99.90;;;;;;5009496;28;20487;-86
2023/06/07 08:37:10;;;;;;;10.17;4.27;;;22.80;99.90;;;;;;5001781;28;20456;-86
2023/06/07 08:39:37;;;;;;;6.93;3.77;;;22.80;99.90;;;;;;5006220;28;20468;-83
2023/06/07 08:42:04;;;;;;;8.20;3.53;;;23.10;99.90;;;;;;5007853;28;20448;-83
2023/06/07 08:44:32;;;;;;;4.20;3.63;;;23.10;99.90;;;;;;5006767;28;20434;-84
2023/06/07 08:46:59;;;;;;;6.97;4.50;;;;;;;;;;5006044;28;20444;-85
2023/06/07 08:49:26;;;;;;;9.67;3.77;;;23.60;1.00;;;;;;5003766;28;20494;-82
2023/06/07 08:51:58;;;;;;;6.17;4.67;;;24.10;1.00;;;;;;5002133;28;20433;-84
2023/06/07 08:54:27;;;;;;;5.63;3.43;;;23.70;99.90;;;;;;5006704;28;20433;-82
2023/06/07 08:56:54;;;;;;;7.27;3.63;;;23.90;99.90;;;;;;5001618;28;20440;-83
2023/06/07 08:59:24;;;;;;;3.80;3.40;;;24.00;99.90;;;;;;5002069;28;20560;-83
2023/06/07 09:01:52;;;;;;;6.00;3.87;;;24.10;99.90;;;;;;5002193;28;20452;-83
2023/06/07 09:04:19;;;;;;;5.50;3.83;;;;;;;;;;5001908;28;20452;-84
2023/06/07 09:06:46;;;;;;;10.03;3.80;;;24.10;99.90;;;;;;5004651;28;20475;-84
2023/06/07 09:09:14;;;;;;;9.80;4.00;;;23.60;1.00;;;;;;5002443;28;20456;-84
2023/06/07 09:11:41;;;;;;;10.10;4.27;;;24.00;99.90;;;;;;5002571;28;20534;-84
2023/06/07 09:14:08;;;;;;;6.80;4.33;;;24.00;99.90;;;;;;5003103;28;20543;-82
2023/06/07 09:16:54;;;;;;;6.83;4.43;;;24.00;99.90;;;;;;5013611;28;20595;-82
2023/06/07 09:19:32;;;;;;;6.40;4.17;;;24.00;99.90;;;;;;5009918;28;20464;-82
2023/06/07 09:21:59;;;;;;;4.20;3.80;;;24.00;99.90;;;;;;5016880;28;20424;-85
2023/06/07 09:24:29;;;;;;;4.50;4.03;;;23.90;99.90;;;;;;5006763;28;20428;-84
2023/06/07 09:26:56;;;;;;;3.83;3.50;;;23.90;99.90;;;;;;5003874;28;20456;-85
2023/06/07 09:29:23;;;;;;;4.60;3.27;;;23.90;99.90;;;;;;5002831;28;20468;-85
2023/06/07 09:31:50;;;;;;;4.53;3.43;;;23.80;99.90;;;;;;5002981;28;20547;-85
2023/06/07 09:34:20;;;;;;;10.30;4.60;;;23.70;1.00;;;;;;5005405;28;20463;-85
2023/06/07 09:36:52;;;;;;;8.17;4.40;;;23.70;99.90;;;;;;5003868;28;20536;-86
2023/06/07 09:39:23;;;;;;;4.10;3.80;;;23.80;99.90;;;;;;5005026;28;20468;-85
2023/06/07 09:41:52;;;;;;;4.90;3.10;;;23.90;99.90;;;;;;5004352;28;20467;-85
2023/06/07 09:44:23;;;;;;;4.33;4.03;;;24.10;99.90;;;;;;5013010;28;20441;-83
2023/06/07 09:46:50;;;;;;;4.90;3.90;;;24.20;99.90;;;;;;5012875;28;20447;-84
2023/06/07 09:49:24;;;;;;;5.20;3.60;;;24.20;99.90;;;;;;5007208;28;20472;-83
2023/06/07 09:51:53;;;;;;;4.47;3.57;;;24.70;1.00;;;;;;5015418;28;20466;-82
2023/06/07 09:54:34;;;;;;;4.60;4.17;;;24.30;99.90;;;;;;5010909;28;20448;-84
2023/06/07 09:57:03;;;;;;;5.60;3.80;;;24.50;1.00;;;;;;5006477;28;20543;-83
2023/06/07 09:59:30;;;;;;;5.97;4.40;;;24.50;99.90;;;;;;5005534;28;20472;-83
2023/06/07 10:01:57;;;;;;;5.87;4.63;;;24.70;99.90;;;;;;5005542;28;20468;-83
2023/06/07 10:04:24;;;;;;;6.73;4.23;;;24.60;99.90;;;;;;5004888;28;20452;-83
2023/06/07 10:06:54;;;;;;;4.27;3.63;;;24.60;99.90;;;;;;5002716;28;20448;-84
2023/06/07 10:09:23;;;;;;;6.10;3.73;;;24.60;99.90;;;;;;5001825;28;20476;-84
2023/06/07 10:11:55;;;;;;;5.23;4.60;;;24.70;99.90;;;;;;5001970;28;20456;-84
2023/06/07 10:14:29;;;;;;;5.37;3.20;;;24.60;1.00;;;;;;5001461;28;20433;-84
2023/06/07 10:17:02;;;;;;;4.40;3.47;;;24.90;99.90;;;;;;5001692;28;20475;-84
2023/06/07 10:19:35;;;;;;;6.30;3.57;;;24.90;99.90;;;;;;5001213;28;20478;-85
2023/06/07 10:22:05;;;;;;;5.20;3.63;;;24.80;99.90;;;;;;5001946;28;20437;-84
2023/06/07 10:24:40;;;;;;;3.70;3.20;;;24.80;99.90;;;;;;5002175;28;20452;-83
2023/06/07 10:27:14;;;;;;;3.70;3.40;;;24.90;99.90;;;;;;5007743;28;20458;-84
2023/06/07 10:32:47;;;;;;;7.00;3.63;;;;;;;;;;5003608;28;20448;-83
2023/06/07 10:35:23;;;;;;;3.53;3.23;;;;;;;;;;5005408;28;20870;-83
2023/06/07 10:38:00;;;;;;;4.53;3.43;;;;;;;;;;5016573;28;20456;-83
2023/06/07 10:40:34;;;;;;;4.20;3.80;;;;;;;;;;5019018;28;20532;-82
2023/06/07 10:43:04;;;;;;;5.37;4.90;;;25.30;99.90;;;;;;5018927;28;20472;-84
2023/06/07 10:45:41;;;;;;;4.40;4.00;;;;;;;;;;5013887;28;20492;-83
2023/06/07 10:48:57;;;;;;;10.00;9.10;;;25.40;99.90;;;;;;5007332;28;20476;-82
2023/06/07 10:51:58;;;;;;;6.13;3.50;;;25.60;99.90;;;;;;5006635;28;20472;-82
2023/06/07 10:55:30;;;;;;;5.33;4.03;;;25.60;99.90;;;;;;5007369;28;20562;-83
2023/06/07 11:02:11;;;;;;;3.63;3.30;;;26.40;99.90;;;;;;4888202;29;20537;-83
2023/06/07 11:04:54;;;;;;;5.20;4.53;;;;;;;;;;4821491;29;20461;-81
2023/06/07 11:07:31;;;;;;;9.57;5.10;;;;;;;;;;4916040;29;20522;-84
2023/06/07 11:10:35;;;;;;;6.13;4.07;;;25.50;1.00;;;;;;4953199;28;20480;-84
2023/06/07 11:13:07;;;;;;;9.60;4.00;;;;;;;;;;5003386;28;20436;-84
2023/06/07 11:15:36;;;;;;;5.50;4.00;;;;;;;;;;5003715;28;20437;-85
2023/06/07 11:18:05;;;;;;;4.40;4.00;;;;;;;;;;5012038;28;20440;-84
2023/06/07 11:23:35;;;;;;;4.70;4.30;;;;;;;;;;5001976;28;20532;-86
2023/06/07 11:26:28;;;;;;;3.87;3.57;;;26.20;99.90;;;;;;5000857;28;20511;-83
2023/06/07 11:29:09;;;;;;;4.30;3.90;;;;;;;;;;4996531;28;20511;-83
2023/06/07 11:31:40;;;;;;;4.53;3.97;;;26.20;99.90;;;;;;5001152;28;20463;-84
2023/06/07 11:34:16;;;;;;;5.43;3.57;;;;;;;;;;5002794;28;20429;-85
2023/06/07 11:36:58;;;;;;;6.77;3.73;;;;;;;;;;5001725;28;20639;-84
2023/06/07 11:39:57;;;;;;;4.30;3.90;;;26.40;99.90;;;;;;5000532;28;20475;-84
2023/06/07 11:42:37;;;;;;;5.20;4.27;;;;;;;;;;5001327;28;20464;-84
2023/06/07 11:51:31;;;;;;;4.20;3.87;;;26.10;99.90;;;;;;5013001;28;20468;-83
2023/06/07 11:57:37;;;;;;;5.40;3.73;;;;;;;;;;4934017;29;20462;-83
2023/06/07 12:03:24;;;;;;;4.00;3.70;;;26.20;99.90;;;;;;4999099;28;20440;-83
2023/06/07 12:08:36;;;;;;;3.87;3.57;;;;;;;;;;5009599;28;20964;-84
2023/06/07 12:11:03;;;;;;;4.30;3.90;;;;;;;;;;5006430;28;20471;-84
2023/06/07 12:13:39;;;;;;;4.00;3.60;;;;;;;;;;5001700;28;20417;-84
2023/06/07 12:16:11;;;;;;;6.20;4.07;;;26.20;99.90;;;;;;5001266;28;20452;-84
2023/06/07 12:18:45;;;;;;;4.87;3.77;;;;;;;;;;4999860;28;20432;-83
2023/06/07 12:21:16;;;;;;;3.80;3.50;;;;;;;;;;4999601;28;20454;-84
2023/06/07 12:23:48;;;;;;;10.03;3.90;;;26.50;99.90;;;;;;5000042;28;20622;-85
2023/06/07 12:26:15;;;;;;;10.97;6.90;;;;;;;;;;5000681;28;20500;-84
2023/06/07 12:28:48;;;;;;;4.20;3.87;;;26.50;99.90;;;;;;5002806;28;20492;-84
2023/06/07 12:31:21;;;;;;;6.07;3.90;;;26.50;99.90;;;;;;5001046;28;20477;-84
2023/06/07 12:34:01;;;;;;;4.17;3.77;;;26.40;99.90;;;;;;5001033;28;20509;-83
2023/06/07 12:36:29;;;;;;;6.03;3.87;;;26.50;99.90;;;;;;5000297;28;20417;-84
2023/06/07 12:39:13;;;;;;;4.80;3.93;;;26.60;99.90;;;;;;5003112;28;20454;-83
2023/06/07 12:41:43;;;;;;;4.77;4.03;;;26.70;99.90;;;;;;5004412;28;20429;-83
2023/06/07 12:44:33;;;;;;;5.13;4.63;;;26.70;99.90;;;;;;5004642;28;20444;-84
2023/06/07 12:47:00;;;;;;;8.43;3.80;;;;;;;;;;4999962;28;20530;-83
2023/06/07 12:49:44;;;;;;;5.63;4.77;;;;;;;;;;5004413;28;20875;-83
2023/06/07 12:52:11;;;;;;;6.27;4.33;;;;;;;;;;5003725;28;20410;-84
2023/06/07 12:54:39;;;;;;;3.83;3.47;;;;;;;;;;5002266;28;20453;-83
2023/06/07 12:57:06;;;;;;;6.70;4.00;;;26.80;99.90;;;;;;5002307;28;20451;-83
2023/06/07 12:59:35;;;;;;;4.30;3.90;;;26.70;99.90;;;;;;5003212;28;20473;-84
2023/06/07 13:02:05;;;;;;;4.03;3.63;;;26.70;99.90;;;;;;5002599;28;20452;-85
2023/06/07 13:04:31;;;;;;;5.07;3.77;;;26.80;99.90;;;;;;5003101;28;20543;-84
2023/06/07 13:06:58;;;;;;;4.33;3.57;;;26.90;99.90;;;;;;5002189;28;20480;-84
2023/06/07 13:09:25;;;;;;;4.70;3.63;;;27.20;1.00;;;;;;5002710;28;20511;-83
2023/06/07 13:11:53;;;;;;;4.13;3.50;;;26.80;99.90;;;;;;5002550;28;20454;-84
2023/06/07 13:14:20;;;;;;;6.10;4.07;;;27.00;99.90;;;;;;5003079;28;20458;-84
2023/06/07 13:16:49;;;;;;;6.60;3.27;;;27.00;99.90;;;;;;5003655;28;20448;-84
2023/06/07 13:19:15;;;;;;;4.47;3.80;;;26.60;99.90;;;;;;5003018;28;20525;-83
2023/06/07 13:21:42;;;;;;;5.37;4.57;;;27.00;99.90;;;;;;5007240;28;20449;-83
2023/06/07 13:24:09;;;;;;;4.30;3.77;;;27.30;99.90;;;;;;5007794;28;20453;-84
2023/06/07 13:26:36;;;;;;;3.90;3.63;;;27.10;99.90;;;;;;5006075;28;20523;-84
2023/06/07 13:29:03;;;;;;;6.90;3.47;;;;;;;;;;5004112;28;20467;-83
2023/06/07 13:31:30;;;;;;;6.90;4.03;;;26.90;99.90;;;;;;5002307;28;20472;-83
2023/06/07 13:33:58;;;;;;;5.07;3.73;;;26.80;99.90;;;;;;5003499;28;20559;-86
2023/06/07 13:36:25;;;;;;;3.90;3.60;;;27.00;99.90;;;;;;5002221;28;20447;-85
2023/06/07 13:38:53;;;;;;;6.60;4.30;;;27.10;99.90;;;;;;5002900;28;20488;-86
2023/06/07 13:41:21;;;;;;;4.97;4.20;;;27.20;99.90;;;;;;5001260;28;20472;-86
2023/06/07 13:43:48;;;;;;;3.87;3.57;;;27.40;99.90;;;;;;5005024;28;20452;-85
2023/06/07 13:46:15;;;;;;;4.73;3.90;;;27.60;99.90;;;;;;5007787;28;20486;-84